• Join FlightAware (Why Join?)
  • Login
  • US Flag 
06:26AM EDT


 

Airport Tracker/Info


-or-


 

Live Flight TrackerFlight Track Log ✈ ASH2775 ✈ 11-May-2013 ✈ KPHX - KBFL

Flight Track Log - Related Links

Times and Time Zones

All times are in EDT time to prevent confusion due to time zone crossing. See the ASH2775 flight status page for this flight to view local times or setup timezone preferences in your user account.

Time Position Orientation Groundspeed Altitude Reporting Facility
EDT Latitude Longitude Course Direction KTS MPH feet Rate Location/Type
01:12PM 33.4333 -111.9833 273° West 175 201 2,100  Level Phoenix TRACON
01:13PM 33.4333 -111.9000 90° East 238 274 4,000 1,500 Climbing Phoenix TRACON
01:14PM 33.4328 -111.8833 92° East 210 242 4,500 2,880 Climbing Albuquerque Center
01:15PM 33.4342 -112.4048 273° West  Level FlightAware Approximate
01:15PM 33.3808 -111.8292 139° Southeast 269 310 8,000  Level Albuquerque Center
01:16PM 33.4398 -112.5396 273° West  Level FlightAware Approximate
01:16PM 33.3278 -111.9203 235° Southwest 298 343 11,500  Level Albuquerque Center
01:17PM 33.4451 -112.6744 273° West  Level FlightAware Approximate
01:17PM 33.3419 -112.0269 279° West 319 367 14,300  Level Albuquerque Center
01:18PM 33.3578 -112.1347 280° West 326 375 17,300 2,100 Climbing Albuquerque Center
01:19PM 33.3739 -112.2494 280° West 338 389 18,700 1,740 Climbing Albuquerque Center
01:20PM 33.3919 -112.3761 280° West 369 425 20,900 2,040 Climbing Albuquerque Center
01:21PM 33.4100 -112.5058 280° West 386 444 23,000 1,980 Climbing Albuquerque Center
01:22PM 33.4297 -112.6467 280° West 395 455 25,100 1,560 Climbing Albuquerque Center
01:23PM 33.4481 -112.7817 279° West 406 467 26,300 1,260 Climbing Albuquerque Center
01:24PM 33.4725 -112.9217 282° West 423 487 27,800 1,440 Climbing Albuquerque Center
01:25PM 33.5056 -113.0919 283° West 435 501 29,300 1,380 Climbing Albuquerque Center
01:26PM 33.5336 -113.2378 283° West 446 513 30,700 1,080 Climbing Albuquerque Center
01:27PM 33.5614 -113.3861 283° West 455 524 31,600 1,200 Climbing Albuquerque Center
01:28PM 33.5900 -113.5356 283° West 461 531 33,300 1,320 Climbing Albuquerque Center
01:29PM 33.6167 -113.6769 283° West 456 525 34,400 1,260 Climbing Albuquerque Center
01:30PM 33.6492 -113.8536 283° West 454 522 36,000 720 Climbing Albuquerque Center
01:31PM 33.6764 -114.0008 283° West 452 520 36,000  Level Albuquerque Center
01:32PM 33.7131 -114.1514 286° West 465 535 36,000  Level Albuquerque Center
01:33PM 33.7525 -114.3064 287° West 471 542 36,000  Level Albuquerque Center
01:34PM 33.7961 -114.4692 288° West 478 550 36,000 -60 Level Los Angeles Center
01:35PM 33.8333 -114.6222 286° West 479 551 35,900 -60 Descending Los Angeles Center
01:37PM 33.8786 -114.8067 287° West 482 555 35,900  Level Los Angeles Center
01:38PM 33.9164 -114.9575 287° West 475 547 35,900  Level Los Angeles Center
01:39PM 33.9611 -115.1392 287° West 473 544 36,000  Climbing Los Angeles Center
01:40PM 33.9967 -115.2883 286° West 468 539 36,000  Level Los Angeles Center
01:41PM 34.0322 -115.4353 286° West 462 532 36,000  Level Los Angeles Center
01:42PM 34.0739 -115.6117 286° West 459 528 36,000  Level Los Angeles Center
01:43PM 34.1089 -115.7556 286° West 453 521 36,000  Level Los Angeles Center
01:44PM 34.1411 -115.8931 286° West 451 519 36,000  Level Los Angeles Center
01:45PM 34.1747 -116.0392 286° West 451 519 36,000  Level Los Angeles Center
01:46PM 34.2089 -116.1850 286° West 452 520 36,000  Level Los Angeles Center
01:47PM 34.2494 -116.3619 286° West 454 522 36,000  Level Los Angeles Center
01:48PM 34.2900 -116.5375 286° West 453 521 36,000  Level Los Angeles Center
01:49PM 34.3250 -116.6814 286° West 449 517 36,000  Level Los Angeles Center
01:50PM 34.3581 -116.8286 285° West 452 520 36,000  Level Los Angeles Center
01:51PM 34.3900 -116.9772 285° West 455 524 36,000  Level Los Angeles Center
01:53PM 34.4225 -117.1256 285° West 455 524 36,000 -240 Level Los Angeles Center
01:54PM 34.4694 -117.3303 286° West 453 521 35,500 -720 Descending Los Angeles Center
01:55PM 34.5039 -117.4778 286° West 453 521 34,500 -1,200 Descending Los Angeles Center
01:56PM 34.5369 -117.6281 285° West 458 527 33,100 -2,160 Descending Los Angeles Center
01:57PM 34.5703 -117.7789 285° West 460 529 30,100 -2,940 Descending Los Angeles Center
01:58PM 34.6033 -117.9308 285° West 463 533 27,100 -2,940 Descending Los Angeles Center
01:59PM 34.6450 -118.0767 289° West 458 527 24,100 -3,000 Descending Los Angeles Center
02:00PM 34.7264 -118.1883 312° West 434 499 21,000 -3,180 Descending Los Angeles Center
02:01PM 34.8222 -118.3131 313° West 423 487 17,600 -3,120 Descending Los Angeles Center
02:02PM 34.8997 -118.4139 313° West 413 475 14,600 -1,800 Descending Los Angeles Center
02:03PM 34.9636 -118.4994 312° West 391 450 14,000 -300 Descending Los Angeles Center
02:04PM 35.0428 -118.5958 315° West 342 394 14,000 -480 Level Los Angeles Center
02:05PM 35.1025 -118.6631 317° Northwest 297 342 13,100 -1,620 Descending Los Angeles Center
02:06PM 35.1631 -118.7336 316° Northwest 300 345 10,700 -2,220 Descending Los Angeles Center
02:07PM 35.2253 -118.8000 319° Northwest 300 345 8,600 -2,280 Descending Los Angeles Center
02:08PM 35.2789 -118.8661 315° West 287 330 6,000 -1,740 Descending Los Angeles Center
02:09PM 35.3386 -118.9386 315° West 282 325 5,100 -900 Descending Los Angeles Center